Ithomi — V7UZ9 — position and weather

sailwx.info

Track history (hours):
 
Tides and Currents Weather Stations Pressure Air Temp Water Temp Dewpoint Dewpoint Depression Visibility Wind Speed Wind Dir Waves Ship Positions

Ithomi

Last reported at 2014-Dec-07 15:26 UTC. Time now 2014-Dec-23 03:45 UTC.
Position N 01°12' E 103°52'.
Warning: this ship's position is 15 days out of date.

Length 189 m; draft 12.6 m.

Type: Ship. MMSI: 538004069.

Date/timePositionNaut miles runAvg speedWind from/ knotsBaromVisibWave heightAir tempDewpointWater temp
2014-Dec-07 15:26N 01°12' E 103°52'7 8.1
2014-Dec-07 14:33N 01°16' E 103°58'1 0.5
2014-Dec-07 13:22N 01°17' E 103°58'0 0.0
2014-Dec-07 12:22N 01°17' E 103°58'0 0.0
2014-Dec-07 11:28N 01°17' E 103°58'0 0.0
2014-Dec-07 10:28N 01°17' E 103°58'0 0.0
2014-Dec-07 09:16N 01°17' E 103°58'0 0.0
2014-Dec-07 08:28N 01°17' E 103°58'0 0.0
2014-Dec-07 07:33N 01°17' E 103°58'0 0.0
2014-Dec-07 06:33N 01°17' E 103°58'0 0.0
2014-Dec-07 05:33N 01°17' E 103°58'0 0.1
2014-Dec-07 04:32N 01°17' E 103°58'0 0.1
2014-Dec-07 03:33N 01°17' E 103°58'0 0.1
2014-Dec-07 02:33N 01°17' E 103°57'1 1.0
2014-Dec-07 01:32N 01°16' E 103°58'9 9.3
2014-Dec-07 00:33N 01°17' E 104°07'  
Track history (hours):
 
Tides and Currents Weather Stations Pressure Air Temp Water Temp Dewpoint Dewpoint Depression Visibility Wind Speed Wind Dir Waves Ship Positions

Ithomi

Last reported at 2014-Dec-07 15:26 UTC. Time now 2014-Dec-23 03:45 UTC.
Position N 01°12' E 103°52'.
Warning: this ship's position is 15 days out of date.

Length 189 m; draft 12.6 m.

Type: Ship. MMSI: 538004069.

Date/timePositionNaut miles runAvg speedWind from/ knotsBaromVisibWave heightAir tempDewpointWater temp
2014-Dec-07 15:26N 01°12' E 103°52'7 8.1
2014-Dec-07 14:33N 01°16' E 103°58'1 0.5
2014-Dec-07 13:22N 01°17' E 103°58'0 0.0
2014-Dec-07 12:22N 01°17' E 103°58'0 0.0
2014-Dec-07 11:28N 01°17' E 103°58'0 0.0
2014-Dec-07 10:28N 01°17' E 103°58'0 0.0
2014-Dec-07 09:16N 01°17' E 103°58'0 0.0
2014-Dec-07 08:28N 01°17' E 103°58'0 0.0
2014-Dec-07 07:33N 01°17' E 103°58'0 0.0
2014-Dec-07 06:33N 01°17' E 103°58'0 0.0
2014-Dec-07 05:33N 01°17' E 103°58'0 0.1
2014-Dec-07 04:32N 01°17' E 103°58'0 0.1
2014-Dec-07 03:33N 01°17' E 103°58'0 0.1
2014-Dec-07 02:33N 01°17' E 103°57'1 1.0
2014-Dec-07 01:32N 01°16' E 103°58'9 9.3
2014-Dec-07 00:33N 01°17' E 104°07'  

Dump ship's entire track history